createdAt,value
2018-06-30T00:02:27.096Z,99.90
2018-06-30T00:04:55.661Z,99.90
2018-06-30T00:07:24.302Z,99.90
2018-06-30T00:09:53.019Z,99.90
2018-06-30T00:12:21.843Z,99.90
2018-06-30T00:14:51.483Z,99.90
2018-06-30T00:17:20.112Z,99.90
2018-06-30T00:19:49.021Z,99.90
2018-06-30T00:22:17.620Z,99.90
2018-06-30T00:24:46.577Z,99.90
2018-06-30T00:29:49.143Z,99.90
2018-06-30T00:32:17.687Z,99.90
2018-06-30T00:34:46.552Z,99.90
2018-06-30T00:37:15.302Z,99.90
2018-06-30T00:39:43.943Z,99.90
2018-06-30T00:42:12.433Z,99.90
2018-06-30T00:44:41.201Z,99.90
2018-06-30T00:47:09.808Z,99.90
2018-06-30T00:49:38.327Z,99.90
2018-06-30T00:54:36.479Z,99.90
2018-06-30T00:57:05.163Z,99.90
2018-06-30T00:59:33.800Z,99.90
2018-06-30T01:02:02.335Z,99.90
2018-06-30T01:04:30.871Z,99.90
2018-06-30T01:06:59.416Z,99.90
2018-06-30T01:09:27.928Z,99.90
2018-06-30T01:11:56.418Z,99.90
2018-06-30T01:14:24.918Z,99.90
2018-06-30T01:16:53.633Z,99.90
2018-06-30T01:19:22.666Z,99.90
2018-06-30T01:21:51.208Z,99.90
2018-06-30T01:24:19.751Z,99.90
2018-06-30T01:26:48.302Z,99.90
2018-06-30T01:29:16.833Z,99.90
2018-06-30T01:31:45.641Z,99.90
2018-06-30T01:34:14.151Z,99.90
2018-06-30T01:36:42.720Z,99.90
2018-06-30T01:39:12.383Z,99.90
2018-06-30T01:41:41.540Z,99.90
2018-06-30T01:44:10.079Z,99.90
2018-06-30T01:46:38.626Z,99.90
2018-06-30T01:49:07.160Z,99.90
2018-06-30T01:51:35.688Z,99.90
2018-06-30T01:54:04.257Z,99.90
2018-06-30T01:56:32.756Z,99.90
2018-06-30T01:59:01.541Z,99.90
2018-06-30T02:01:30.248Z,99.90
2018-06-30T02:03:58.764Z,99.90
2018-06-30T02:06:27.347Z,99.90
2018-06-30T02:08:55.846Z,99.90
2018-06-30T02:11:24.620Z,99.90
2018-06-30T02:13:53.915Z,99.90
2018-06-30T02:18:50.630Z,99.90
2018-06-30T02:21:19.102Z,99.90
2018-06-30T02:23:47.797Z,99.90
2018-06-30T02:26:16.291Z,99.90
2018-06-30T02:28:44.830Z,99.90
2018-06-30T02:31:13.397Z,99.90
2018-06-30T02:33:41.902Z,99.90
2018-06-30T02:36:10.454Z,99.90
2018-06-30T02:38:38.959Z,99.90
2018-06-30T02:41:07.665Z,99.90
2018-06-30T02:43:36.166Z,99.90
2018-06-30T02:46:04.836Z,99.90
2018-06-30T02:48:33.287Z,99.90
2018-06-30T02:51:01.783Z,99.90
2018-06-30T02:55:58.602Z,99.90
2018-06-30T02:58:27.109Z,99.90
2018-06-30T03:00:55.584Z,99.90
2018-06-30T03:03:24.092Z,99.90
2018-06-30T03:05:52.566Z,99.90
2018-06-30T03:08:21.302Z,99.90
2018-06-30T03:10:49.817Z,99.90
2018-06-30T03:13:18.357Z,99.90
2018-06-30T03:15:46.854Z,99.90
2018-06-30T03:18:15.337Z,99.90
2018-06-30T03:20:43.834Z,99.90
2018-06-30T03:23:12.308Z,99.90
2018-06-30T03:25:40.817Z,99.90
2018-06-30T03:30:38.108Z,99.90
2018-06-30T03:33:06.592Z,99.90
2018-06-30T03:35:35.470Z,99.90
2018-06-30T03:38:03.932Z,99.90
2018-06-30T03:43:00.777Z,99.90
2018-06-30T03:45:29.290Z,99.90
2018-06-30T03:47:57.821Z,99.90
2018-06-30T03:50:26.652Z,99.90
2018-06-30T03:52:55.147Z,99.90
2018-06-30T03:55:23.886Z,99.90
2018-06-30T03:57:52.377Z,99.90
2018-06-30T04:00:21.210Z,99.90
2018-06-30T04:02:49.739Z,99.90
2018-06-30T04:05:18.232Z,99.90
2018-06-30T04:07:46.841Z,99.90
2018-06-30T04:10:15.374Z,99.90
2018-06-30T04:12:44.035Z,99.90
2018-06-30T04:15:12.553Z,99.90
2018-06-30T04:17:41.209Z,99.90
2018-06-30T04:20:09.754Z,99.90
2018-06-30T04:22:38.276Z,99.90
2018-06-30T04:25:06.870Z,99.90
2018-06-30T04:27:35.418Z,99.90
2018-06-30T04:30:04.525Z,99.90
2018-06-30T04:32:33.055Z,99.90
2018-06-30T04:35:02.098Z,99.90
2018-06-30T04:37:30.740Z,99.90
2018-06-30T04:39:59.253Z,99.90
2018-06-30T04:42:27.808Z,99.90
2018-06-30T04:44:56.319Z,99.90
2018-06-30T04:47:24.854Z,99.90
2018-06-30T04:49:53.363Z,99.90
2018-06-30T04:52:21.928Z,99.90
2018-06-30T04:54:50.429Z,99.90
2018-06-30T04:57:19.110Z,99.90
2018-06-30T04:59:47.689Z,99.90
2018-06-30T05:02:16.209Z,99.90
2018-06-30T05:04:44.880Z,99.90
2018-06-30T05:07:13.392Z,99.90
2018-06-30T05:09:41.948Z,99.90
2018-06-30T05:12:10.442Z,99.90
2018-06-30T05:14:38.960Z,99.90
2018-06-30T05:17:07.473Z,99.90
2018-06-30T05:19:36.087Z,99.90
2018-06-30T05:22:04.617Z,99.90
2018-06-30T05:24:33.280Z,99.90
2018-06-30T05:27:01.801Z,99.90
2018-06-30T05:29:30.373Z,99.90
2018-06-30T05:31:58.929Z,99.90
2018-06-30T05:34:28.462Z,99.90
2018-06-30T05:36:57.013Z,99.90
2018-06-30T05:39:25.725Z,99.90
2018-06-30T05:41:54.580Z,99.90
2018-06-30T05:44:23.066Z,99.90
2018-06-30T05:46:51.658Z,99.90
2018-06-30T05:49:20.570Z,99.90
2018-06-30T05:51:49.095Z,99.90
2018-06-30T05:54:17.635Z,99.90
2018-06-30T05:56:46.132Z,99.90
2018-06-30T05:59:14.648Z,99.90
2018-06-30T06:01:43.675Z,99.90
2018-06-30T06:04:12.441Z,99.90
2018-06-30T06:06:40.945Z,99.90
2018-06-30T06:09:11.260Z,99.90
2018-06-30T06:11:39.919Z,99.90
2018-06-30T06:14:08.771Z,99.90
2018-06-30T06:16:37.609Z,99.90
2018-06-30T06:19:07.149Z,99.90
2018-06-30T06:21:35.673Z,99.90
2018-06-30T06:24:04.361Z,99.90
2018-06-30T06:26:32.907Z,99.90
2018-06-30T06:29:01.461Z,99.90
2018-06-30T06:31:29.986Z,99.90
2018-06-30T06:33:58.709Z,99.90
2018-06-30T06:36:27.231Z,99.90
2018-06-30T06:38:55.757Z,99.90
2018-06-30T06:41:24.337Z,99.90
2018-06-30T06:43:53.061Z,99.90
2018-06-30T06:46:21.913Z,99.90
2018-06-30T06:48:50.477Z,99.90
2018-06-30T06:53:47.360Z,99.90
2018-06-30T06:56:15.918Z,99.90
2018-06-30T06:58:44.459Z,99.90
2018-06-30T07:01:13.013Z,99.90
2018-06-30T07:03:41.703Z,99.90
2018-06-30T07:06:10.280Z,99.90
2018-06-30T07:08:39.092Z,99.90
2018-06-30T07:11:07.765Z,99.90
2018-06-30T07:13:38.287Z,99.90
2018-06-30T07:16:07.359Z,99.90
2018-06-30T07:18:37.315Z,99.90
2018-06-30T07:21:06.174Z,99.90
2018-06-30T07:23:35.017Z,99.90
2018-06-30T07:26:03.627Z,99.90
2018-06-30T07:28:32.421Z,99.90
2018-06-30T07:31:00.932Z,99.90
2018-06-30T07:33:29.486Z,99.90
2018-06-30T07:35:57.992Z,99.90
2018-06-30T07:38:26.542Z,99.90
2018-06-30T07:40:55.443Z,99.90
2018-06-30T07:43:24.199Z,99.90
2018-06-30T07:45:52.789Z,99.90
2018-06-30T07:48:21.330Z,99.90
2018-06-30T07:50:50.037Z,99.90
2018-06-30T07:53:18.550Z,99.90
2018-06-30T07:55:47.106Z,99.90
2018-06-30T07:58:15.604Z,99.90
2018-06-30T08:00:44.413Z,99.90
2018-06-30T08:03:12.905Z,99.90
2018-06-30T08:05:41.468Z,99.90
2018-06-30T08:08:10.314Z,99.90
2018-06-30T08:10:38.872Z,99.90
2018-06-30T08:13:07.903Z,99.90
2018-06-30T08:15:36.451Z,99.90
2018-06-30T08:18:04.965Z,99.90
2018-06-30T08:20:33.478Z,99.90
2018-06-30T08:23:02.035Z,99.90
2018-06-30T08:25:30.616Z,99.90
2018-06-30T08:27:59.216Z,99.90
2018-06-30T08:30:27.998Z,99.90
2018-06-30T08:32:56.695Z,99.90
2018-06-30T08:35:25.432Z,99.90
2018-06-30T08:37:53.998Z,99.90
2018-06-30T08:40:22.584Z,99.90
2018-06-30T08:42:51.165Z,99.90
2018-06-30T08:45:19.666Z,99.90
2018-06-30T08:47:48.260Z,99.90
2018-06-30T08:50:16.776Z,99.90
2018-06-30T08:52:45.329Z,99.90
2018-06-30T08:55:13.882Z,99.90
2018-06-30T08:57:42.627Z,99.90
2018-06-30T09:00:11.190Z,99.90
2018-06-30T09:02:39.685Z,99.90
2018-06-30T09:05:08.219Z,99.90
2018-06-30T09:07:36.767Z,99.90
2018-06-30T09:12:34.570Z,99.90
2018-06-30T09:15:03.508Z,99.90
2018-06-30T09:17:32.011Z,99.90
2018-06-30T09:20:00.537Z,99.90
2018-06-30T09:22:29.072Z,99.90
2018-06-30T09:24:57.633Z,99.90
2018-06-30T09:27:26.216Z,99.90
2018-06-30T09:29:54.899Z,99.90
2018-06-30T09:32:23.428Z,99.90
2018-06-30T09:34:51.984Z,99.90
2018-06-30T09:37:20.545Z,99.90
2018-06-30T09:39:49.065Z,99.90
2018-06-30T09:42:17.706Z,99.90
2018-06-30T09:44:46.267Z,99.90
2018-06-30T09:47:14.740Z,99.90
2018-06-30T09:49:43.241Z,99.90
2018-06-30T09:52:11.780Z,99.90
2018-06-30T09:57:09.070Z,99.90
2018-06-30T09:59:37.717Z,99.90
2018-06-30T10:02:06.264Z,99.90
2018-06-30T10:04:34.965Z,99.90
2018-06-30T10:07:03.699Z,99.90
2018-06-30T10:09:32.324Z,99.90
2018-06-30T10:12:01.035Z,99.90
2018-06-30T10:14:29.614Z,99.90
2018-06-30T10:16:58.090Z,99.90
2018-06-30T10:19:26.661Z,99.90
2018-06-30T10:21:55.233Z,99.90
2018-06-30T10:24:23.798Z,99.90
2018-06-30T10:26:53.209Z,99.90
2018-06-30T10:29:21.707Z,99.90
2018-06-30T10:31:50.505Z,99.90
2018-06-30T10:34:19.094Z,99.90
2018-06-30T10:36:48.341Z,99.90
2018-06-30T10:39:17.045Z,99.90
2018-06-30T10:41:45.643Z,99.90
2018-06-30T10:44:14.147Z,99.90
2018-06-30T10:49:11.999Z,99.90
2018-06-30T10:51:40.535Z,99.90
2018-06-30T10:54:09.155Z,99.90
2018-06-30T10:56:37.721Z,99.90
2018-06-30T10:59:06.554Z,99.90
2018-06-30T11:01:35.119Z,99.90
2018-06-30T11:04:03.754Z,99.90
2018-06-30T11:06:32.328Z,99.90
2018-06-30T11:09:00.903Z,99.90
2018-06-30T11:11:29.496Z,99.90
2018-06-30T11:13:58.063Z,99.90
2018-06-30T11:18:54.931Z,99.90
2018-06-30T11:21:23.563Z,99.90
2018-06-30T11:23:52.246Z,99.90
2018-06-30T11:26:20.915Z,99.90
2018-06-30T11:28:49.616Z,99.90
2018-06-30T11:31:18.466Z,99.90
2018-06-30T11:33:47.241Z,99.90
2018-06-30T11:36:15.755Z,99.90
2018-06-30T11:38:44.298Z,99.90
2018-06-30T11:41:12.898Z,99.90
2018-06-30T11:43:41.488Z,99.90
2018-06-30T11:46:10.100Z,99.90
2018-06-30T11:48:38.648Z,99.90
2018-06-30T11:51:07.302Z,99.90
2018-06-30T11:53:36.136Z,99.90
2018-06-30T11:56:04.831Z,99.90
2018-06-30T11:58:33.530Z,99.90
2018-06-30T12:01:02.229Z,99.90
2018-06-30T12:03:30.826Z,99.90
2018-06-30T12:06:00.220Z,99.90
2018-06-30T12:08:29.007Z,99.90
2018-06-30T12:10:58.036Z,99.90
2018-06-30T12:13:26.544Z,99.90
2018-06-30T12:15:55.335Z,99.90
2018-06-30T12:18:23.866Z,99.90
2018-06-30T12:20:52.395Z,99.90
2018-06-30T12:23:20.894Z,99.90
2018-06-30T12:25:49.421Z,99.90
2018-06-30T12:28:18.529Z,99.90
2018-06-30T12:30:47.327Z,99.90
2018-06-30T12:33:15.961Z,99.90
2018-06-30T12:35:44.538Z,99.90
2018-06-30T12:38:13.676Z,99.90
2018-06-30T12:40:42.202Z,99.90
2018-06-30T12:43:10.769Z,99.90
2018-06-30T12:45:39.299Z,99.90
2018-06-30T12:48:08.386Z,99.90
2018-06-30T12:53:05.800Z,99.90
2018-06-30T12:55:34.349Z,99.90
2018-06-30T12:58:02.885Z,99.90
2018-06-30T13:00:31.573Z,99.90
2018-06-30T13:03:00.170Z,99.90
2018-06-30T13:07:57.148Z,99.90
2018-06-30T13:10:25.965Z,99.90
2018-06-30T13:12:54.653Z,99.90
2018-06-30T13:15:23.197Z,99.90
2018-06-30T13:17:52.021Z,99.90
2018-06-30T13:20:20.792Z,99.90
2018-06-30T13:22:50.386Z,99.90
2018-06-30T13:25:18.982Z,99.90
2018-06-30T13:27:47.506Z,99.90
2018-06-30T13:30:16.039Z,99.90
2018-06-30T13:32:44.956Z,99.90
2018-06-30T13:35:13.872Z,99.90
2018-06-30T13:37:42.461Z,99.90
2018-06-30T13:40:11.363Z,99.90
2018-06-30T13:45:09.537Z,99.90
2018-06-30T13:47:38.160Z,99.90
2018-06-30T13:50:07.657Z,99.90
2018-06-30T13:52:36.691Z,99.90
2018-06-30T13:55:05.595Z,99.90
2018-06-30T13:57:34.492Z,99.90
2018-06-30T14:00:03.343Z,99.90
2018-06-30T14:02:31.890Z,99.90
2018-06-30T14:05:00.414Z,99.90
2018-06-30T14:07:29.068Z,99.90
2018-06-30T14:09:57.796Z,99.90
2018-06-30T14:12:27.376Z,99.90
2018-06-30T14:14:55.924Z,99.90
2018-06-30T14:17:24.530Z,99.90
2018-06-30T14:19:53.029Z,99.90
2018-06-30T14:22:21.620Z,99.90
2018-06-30T14:24:50.120Z,99.90
2018-06-30T14:27:20.202Z,99.90
2018-06-30T14:29:48.739Z,99.90
2018-06-30T14:34:45.540Z,99.90
2018-06-30T14:37:14.538Z,99.90
2018-06-30T14:39:43.135Z,99.90
2018-06-30T14:42:11.681Z,99.90
2018-06-30T14:44:40.216Z,99.90
2018-06-30T14:47:08.791Z,99.90
2018-06-30T14:49:37.444Z,99.90
2018-06-30T14:52:06.043Z,99.90
2018-06-30T14:54:34.848Z,99.90
2018-06-30T14:57:03.432Z,99.90
2018-06-30T14:59:32.236Z,99.90
2018-06-30T15:02:00.792Z,99.90
2018-06-30T15:04:29.411Z,99.90
2018-06-30T15:06:57.978Z,99.90
2018-06-30T15:09:26.522Z,99.90
2018-06-30T15:11:55.145Z,99.90
2018-06-30T15:16:53.019Z,99.90
2018-06-30T15:19:21.549Z,99.90
2018-06-30T15:21:50.408Z,99.90
2018-06-30T15:24:19.021Z,99.90
2018-06-30T15:26:47.596Z,99.90
2018-06-30T15:29:16.420Z,99.90
2018-06-30T15:31:44.991Z,99.90
2018-06-30T15:34:13.695Z,99.90
2018-06-30T15:36:42.460Z,99.90
2018-06-30T15:39:11.731Z,99.90
2018-06-30T15:41:40.365Z,99.90
2018-06-30T15:44:08.978Z,99.90
2018-06-30T15:46:37.591Z,99.90
2018-06-30T15:49:06.561Z,99.90
2018-06-30T15:51:35.369Z,99.90
2018-06-30T15:54:04.424Z,99.90
2018-06-30T15:56:32.991Z,99.90
2018-06-30T15:59:01.522Z,99.90
2018-06-30T16:01:30.403Z,99.90
2018-06-30T16:03:59.095Z,99.90
2018-06-30T16:06:27.623Z,99.90
2018-06-30T16:08:56.173Z,99.90
2018-06-30T16:11:24.710Z,99.90
2018-06-30T16:13:53.348Z,99.90
2018-06-30T16:16:22.249Z,99.90
2018-06-30T16:18:51.187Z,99.90
2018-06-30T16:21:19.864Z,99.90
2018-06-30T16:23:48.378Z,99.90
2018-06-30T16:26:16.925Z,99.90
2018-06-30T16:28:46.069Z,99.90
2018-06-30T16:31:14.560Z,99.90
2018-06-30T16:33:43.328Z,99.90
2018-06-30T16:36:11.862Z,99.90
2018-06-30T16:38:40.734Z,99.90
2018-06-30T16:43:37.437Z,99.90
2018-06-30T16:46:06.211Z,99.90
2018-06-30T16:48:34.984Z,99.90
2018-06-30T16:51:03.586Z,99.90
2018-06-30T16:53:32.194Z,99.90
2018-06-30T16:56:00.860Z,99.90
2018-06-30T16:58:29.491Z,99.90
2018-06-30T17:03:26.296Z,99.90
2018-06-30T17:05:54.834Z,99.90
2018-06-30T17:08:23.424Z,99.90
2018-06-30T17:10:51.972Z,99.90
2018-06-30T17:13:20.467Z,99.90
2018-06-30T17:15:48.995Z,99.90
2018-06-30T17:18:17.646Z,99.90
2018-06-30T17:20:46.314Z,99.90
2018-06-30T17:23:14.900Z,99.90
2018-06-30T17:25:43.798Z,99.90
2018-06-30T17:28:12.295Z,99.90
2018-06-30T17:30:40.916Z,99.90
2018-06-30T17:33:09.493Z,99.90
2018-06-30T17:35:38.049Z,99.90
2018-06-30T17:38:07.267Z,99.90
2018-06-30T17:40:35.850Z,99.90
2018-06-30T17:43:04.374Z,99.90
2018-06-30T17:45:33.074Z,99.90
2018-06-30T17:48:01.791Z,99.90
2018-06-30T17:53:11.052Z,99.90
2018-06-30T17:55:39.737Z,99.90
2018-06-30T17:58:08.290Z,99.90
2018-06-30T18:00:36.904Z,99.90
2018-06-30T18:03:06.075Z,99.90
2018-06-30T18:05:34.615Z,99.90
2018-06-30T18:08:03.115Z,99.90
2018-06-30T18:12:59.942Z,99.90
2018-06-30T18:15:28.468Z,99.90
2018-06-30T18:17:56.995Z,99.90
2018-06-30T18:20:25.604Z,99.90
2018-06-30T18:25:22.664Z,99.90
2018-06-30T18:30:19.366Z,99.90
2018-06-30T18:32:48.253Z,99.90
2018-06-30T18:35:16.882Z,99.90
2018-06-30T18:37:45.431Z,99.90
2018-06-30T18:40:14.205Z,99.90
2018-06-30T18:42:42.894Z,99.90
2018-06-30T18:45:11.412Z,99.90
2018-06-30T18:47:40.117Z,99.90
2018-06-30T18:50:08.636Z,99.90
2018-06-30T18:52:37.223Z,99.90
2018-06-30T18:55:06.184Z,99.90
2018-06-30T18:57:35.094Z,99.90
2018-06-30T19:00:03.658Z,99.90
2018-06-30T19:02:32.170Z,99.90
2018-06-30T19:05:00.754Z,99.90
2018-06-30T19:07:29.268Z,99.90
2018-06-30T19:09:57.852Z,99.90
2018-06-30T19:12:26.430Z,99.90
2018-06-30T19:14:55.190Z,99.90
2018-06-30T19:17:23.887Z,99.90
2018-06-30T19:19:52.757Z,99.90
2018-06-30T19:22:21.269Z,99.90
2018-06-30T19:24:49.902Z,99.90
2018-06-30T19:27:18.604Z,99.90
2018-06-30T19:29:47.309Z,99.90
2018-06-30T19:32:15.891Z,99.90
2018-06-30T19:34:44.471Z,99.90
2018-06-30T19:37:13.018Z,99.90
2018-06-30T19:39:41.559Z,99.90
2018-06-30T19:42:10.501Z,99.90
2018-06-30T19:44:38.970Z,99.90
2018-06-30T19:47:07.782Z,99.90
2018-06-30T19:49:36.312Z,99.90
2018-06-30T19:52:04.885Z,99.90
2018-06-30T19:54:33.663Z,99.90
2018-06-30T19:57:02.194Z,99.90
2018-06-30T19:59:30.696Z,99.90
2018-06-30T20:01:59.226Z,99.90
2018-06-30T20:04:28.256Z,99.90
2018-06-30T20:06:56.756Z,99.90
2018-06-30T20:09:25.426Z,99.90
2018-06-30T20:11:53.964Z,99.90
2018-06-30T20:14:22.709Z,99.90
2018-06-30T20:16:51.224Z,99.90
2018-06-30T20:19:19.793Z,99.90
2018-06-30T20:21:48.421Z,99.90
2018-06-30T20:24:17.075Z,99.90
2018-06-30T20:29:14.162Z,99.90
2018-06-30T20:31:43.296Z,99.90
2018-06-30T20:34:11.833Z,99.90
2018-06-30T20:36:40.305Z,99.90
2018-06-30T20:39:10.229Z,99.90
2018-06-30T20:41:39.133Z,99.90
2018-06-30T20:44:10.401Z,99.90
2018-06-30T20:46:39.264Z,99.90
2018-06-30T20:49:07.888Z,99.90
2018-06-30T20:51:36.402Z,99.90
2018-06-30T20:54:04.987Z,99.90
2018-06-30T20:56:33.536Z,99.90
2018-06-30T20:59:02.122Z,99.90
2018-06-30T21:01:30.609Z,99.90
2018-06-30T21:03:59.172Z,99.90
2018-06-30T21:06:27.703Z,99.90
2018-06-30T21:08:56.197Z,99.90
2018-06-30T21:11:24.872Z,99.90
2018-06-30T21:13:53.410Z,99.90
2018-06-30T21:16:21.932Z,99.90
2018-06-30T21:18:50.464Z,99.90
2018-06-30T21:21:18.991Z,99.90
2018-06-30T21:23:47.557Z,99.90
2018-06-30T21:26:16.080Z,99.90
2018-06-30T21:28:44.574Z,99.90
2018-06-30T21:31:13.425Z,99.90
2018-06-30T21:33:42.011Z,99.90
2018-06-30T21:36:10.524Z,99.90
2018-06-30T21:41:07.739Z,98.60
2018-06-30T21:43:36.881Z,95.40
2018-06-30T21:46:05.857Z,94.00
2018-06-30T21:48:34.543Z,89.80
2018-06-30T21:51:03.063Z,92.10
2018-06-30T21:53:31.617Z,92.80
2018-06-30T21:56:00.264Z,90.80
2018-06-30T21:58:28.956Z,90.40
2018-06-30T22:01:31.995Z,85.40
2018-06-30T22:04:00.813Z,90.70
2018-06-30T22:06:29.375Z,90.50
2018-06-30T22:08:58.011Z,90.70
2018-06-30T22:11:26.593Z,90.80
2018-06-30T22:13:55.181Z,91.50
2018-06-30T22:16:23.881Z,90.10
2018-06-30T22:18:53.050Z,90.70
2018-06-30T22:21:21.569Z,90.00
2018-06-30T22:23:50.256Z,87.50
2018-06-30T22:26:18.827Z,89.40
2018-06-30T22:28:48.459Z,88.20
2018-06-30T22:33:45.131Z,90.10
2018-06-30T22:36:14.082Z,90.30
2018-06-30T22:38:42.590Z,88.80
2018-06-30T22:43:39.292Z,90.90
2018-06-30T22:46:08.354Z,90.50
2018-06-30T22:48:36.895Z,86.20
2018-06-30T22:51:05.475Z,85.30
2018-06-30T22:53:34.187Z,86.20
2018-06-30T22:56:02.774Z,83.70
2018-06-30T22:58:31.496Z,85.60
2018-06-30T23:01:00.171Z,82.30
2018-06-30T23:03:28.856Z,82.80
2018-06-30T23:05:57.358Z,79.40
2018-06-30T23:08:26.233Z,74.40
2018-06-30T23:10:55.123Z,75.00
2018-06-30T23:13:24.080Z,75.70
2018-06-30T23:15:53.390Z,69.40
2018-06-30T23:18:21.997Z,70.20
2018-06-30T23:20:50.595Z,70.40
2018-06-30T23:23:19.101Z,66.80
2018-06-30T23:25:47.610Z,69.30
2018-06-30T23:28:16.146Z,73.10
2018-06-30T23:30:44.727Z,76.10
2018-06-30T23:33:13.440Z,74.20
2018-06-30T23:35:41.920Z,73.30
2018-06-30T23:38:10.424Z,70.50
2018-06-30T23:40:39.127Z,68.60
2018-06-30T23:43:07.843Z,70.40
2018-06-30T23:45:36.364Z,68.30
2018-06-30T23:48:05.473Z,64.60
2018-06-30T23:50:34.395Z,65.30
2018-06-30T23:53:03.959Z,63.50
2018-06-30T23:55:32.697Z,62.40
2018-06-30T23:58:01.603Z,64.60
